Time;durP1;ratioP1;P1;durP2;ratioP2;P2;SDS_P1;SDS_P2;PMS_P1;PMS_P2;Temp;Humidity;BMP_temperature;BMP_pressure;BME280_temperature;BME280_humidity;BME280_pressure;Samples;Min_cycle;Max_cycle;Signal;HPM_P1;HPM_P2
2022/05/13 00:01:07;;;;;;;7.23;1.93;;;;;;;-145.18;100.00;46646.72;5032217;28;20600;-73
2022/05/13 00:03:33;;;;;;;11.20;1.90;;;;;;;-145.18;100.00;46640.88;5031818;28;20338;-73
2022/05/13 00:05:59;;;;;;;7.13;1.30;;;;;;;-145.18;100.00;46615.47;5018205;28;20338;-73
2022/05/13 00:08:24;;;;;;;10.20;1.70;;;;;;;-145.18;100.00;46621.31;5012418;28;21140;-73
2022/05/13 00:10:50;;;;;;;13.90;2.47;;;;;;;-145.18;100.00;46605.69;5012570;28;20382;-73
2022/05/13 00:13:15;;;;;;;11.17;1.73;;;;;;;-145.18;100.00;46619.38;5012080;28;20057;-74
2022/05/13 00:15:42;;;;;;;10.37;1.60;;;;;;;-145.18;100.00;46617.41;5012330;28;20030;-73
2022/05/13 00:18:08;;;;;;;5.40;1.57;;;;;;;-145.18;100.00;46619.38;5012369;28;20022;-73
2022/05/13 00:20:34;;;;;;;6.13;1.60;;;;;;;-145.18;100.00;46633.06;5012406;28;20271;-73
2022/05/13 00:22:59;;;;;;;7.83;1.50;;;;;;;-145.18;100.00;46633.06;5011198;28;20263;-73
2022/05/13 00:25:36;;;;;;;9.53;2.47;;;;;;;-145.18;100.00;46623.28;5012191;28;20037;-73
2022/05/13 00:28:03;;;;;;;11.57;2.00;;;;;;;-145.18;100.00;46631.09;5012376;28;20048;-73
2022/05/13 00:30:31;;;;;;;6.60;1.50;;;;;;;-145.18;100.00;46617.41;5012134;28;20362;-73
2022/05/13 00:32:56;;;;;;;6.60;1.40;;;;;;;-145.18;100.00;46631.09;5011905;28;20278;-73
2022/05/13 00:35:23;;;;;;;10.70;1.80;;;;;;;-145.18;100.00;46621.31;5011941;28;20291;-73
2022/05/13 00:37:48;;;;;;;8.43;1.63;;;;;;;-145.18;100.00;46611.56;5011910;28;20140;-73
2022/05/13 00:40:16;;;;;;;14.73;1.80;;;;;;;-145.18;100.00;46615.47;5012161;28;20713;-73
2022/05/13 00:42:41;;;;;;;8.77;2.37;;;;;;;-145.18;100.00;46609.59;5011608;28;20034;-73
2022/05/13 00:45:08;;;;;;;7.50;1.47;;;;;;;-145.18;100.00;46617.41;5011636;28;20282;-73
2022/05/13 00:47:33;;;;;;;10.43;1.60;;;;;;;-145.18;100.00;46593.97;5011177;28;20065;-73
2022/05/13 00:50:01;;;;;;;10.60;2.20;;;;;;;-145.18;100.00;46601.78;5011468;28;20280;-73
2022/05/13 00:52:27;;;;;;;5.77;2.07;;;;;;;-145.18;100.00;46593.97;5011878;28;20034;-73
2022/05/13 00:54:54;;;;;;;6.07;1.50;;;;;;;-145.18;100.00;46597.88;5011069;28;20345;-73
2022/05/13 00:57:21;;;;;;;10.87;2.07;;;;;;;-145.18;100.00;46592.03;5011617;28;20558;-72
2022/05/13 00:59:49;;;;;;;12.03;1.90;;;;;;;-145.18;100.00;46607.66;5011083;28;20275;-73
2022/05/13 01:02:15;;;;;;;12.10;2.00;;;;;;;-145.18;100.00;46590.06;5011147;28;20275;-73
2022/05/13 01:04:41;;;;;;;10.37;2.17;;;;;;;-145.18;100.00;46582.25;5011295;28;20275;-73
2022/05/13 01:07:19;;;;;;;13.53;2.27;;;;;;;-145.18;100.00;46584.22;5011525;28;20282;-73
2022/05/13 01:09:55;;;;;;;14.57;2.53;;;;;;;-145.18;100.00;46578.34;5010932;28;20279;-73
2022/05/13 01:12:26;;;;;;;7.00;1.33;;;;;;;-145.18;100.00;46572.50;5011463;28;20306;-73
2022/05/13 01:14:58;;;;;;;7.37;2.37;;;;;;;-145.18;100.00;46574.44;5010873;28;20295;-73
2022/05/13 01:20:19;;;;;;;12.53;2.30;;;;;;;-145.18;100.00;46566.63;5011147;28;20383;-73
2022/05/13 01:22:48;;;;;;;18.73;3.63;;;;;;;-145.18;100.00;46562.72;5010854;28;20298;-74
2022/05/13 01:25:18;;;;;;;14.77;3.57;;;;;;;-145.18;100.00;46558.81;5011116;28;20267;-73
2022/05/13 01:27:46;;;;;;;15.00;2.63;;;;;;;-145.18;100.00;46549.06;5010615;28;20613;-73
2022/05/13 01:30:19;;;;;;;13.67;3.40;;;;;;;-145.18;100.00;46551.00;5010897;28;20264;-73
2022/05/13 01:32:44;;;;;;;10.03;2.93;;;;;;;-145.18;100.00;46554.91;4991300;28;20260;-73
2022/05/13 01:35:10;;;;;;;12.83;3.73;;;;;;;-145.18;100.00;46547.09;4990082;28;20296;-73
2022/05/13 01:37:36;;;;;;;17.97;3.07;;;;;;;-145.18;100.00;46556.88;4991202;28;20053;-73
2022/05/13 01:40:03;;;;;;;16.47;3.60;;;;;;;-145.18;100.00;46562.72;4990820;28;20260;-73
2022/05/13 01:42:30;;;;;;;19.00;4.03;;;;;;;-145.18;100.00;46572.50;4991121;28;20065;-73
2022/05/13 01:44:56;;;;;;;18.20;3.63;;;;;;;-145.18;100.00;46588.13;4991101;28;20792;-74
2022/05/13 01:47:21;;;;;;;21.73;5.43;;;;;;;-145.18;100.00;46640.88;4990625;28;20292;-73
2022/05/13 01:49:47;;;;;;;16.03;4.43;;;;;;;-145.18;100.00;46621.31;4989136;28;20081;-73
2022/05/13 01:52:12;;;;;;;13.00;4.00;;;;;;;-145.18;100.00;46652.59;4991195;28;20101;-73
2022/05/13 01:54:37;;;;;;;14.00;3.40;;;;;;;-145.18;100.00;46656.50;4990372;28;20502;-73
2022/05/13 01:57:03;;;;;;;12.30;3.47;;;;;;;-145.18;100.00;46656.50;4990703;28;20140;-73
2022/05/13 01:59:29;;;;;;;23.73;4.63;;;;;;;-145.18;100.00;46650.63;4990426;28;20031;-73
2022/05/13 02:01:54;;;;;;;20.00;4.03;;;;;;;-145.18;100.00;46627.19;5193653;22;20301;-73
2022/05/13 02:04:20;;;;;;;10.40;4.00;;;;;;;-145.18;100.00;46642.81;5020472;28;20053;-72
2022/05/13 02:06:45;;;;;;;22.93;4.50;;;;;;;-145.18;100.00;46652.59;5023990;28;20037;-73
2022/05/13 02:09:10;;;;;;;25.83;5.93;;;;;;;-145.18;100.00;46660.41;5023824;28;20041;-73
2022/05/13 02:11:36;;;;;;;17.60;4.53;;;;;;;-145.18;100.00;46664.31;5010250;28;20029;-73
2022/05/13 02:14:04;;;;;;;21.93;4.23;;;;;;;-145.18;100.00;46668.22;5009875;28;20510;-73
2022/05/13 02:16:30;;;;;;;15.73;3.73;;;;;;;-145.18;100.00;46670.16;5011999;28;20366;-73
2022/05/13 02:18:55;;;;;;;17.30;4.10;;;;;;;-145.18;100.00;46668.22;5029569;28;20312;-73
2022/05/13 02:21:21;;;;;;;19.30;4.70;;;;;;;-145.18;100.00;46676.03;5030150;28;20029;-72
2022/05/13 02:23:46;;;;;;;18.97;4.17;;;;;;;-145.18;100.00;46677.97;5029531;28;20537;-72
2022/05/13 02:26:14;;;;;;;14.40;4.17;;;;;;;-145.18;100.00;46676.03;5030306;28;20474;-72
2022/05/13 02:28:40;;;;;;;21.73;4.77;;;;;;;-145.18;100.00;46683.84;5028733;28;20021;-72
2022/05/13 02:31:06;;;;;;;15.20;4.63;;;;;;;-145.18;100.00;46676.03;5028915;28;20282;-72
2022/05/13 02:33:33;;;;;;;26.07;4.93;;;;;;;-145.18;100.00;46677.97;5029429;28;20397;-73
2022/05/13 02:36:02;;;;;;;27.37;5.50;;;;;;;-145.18;100.00;46679.94;5028994;28;20290;-73
2022/05/13 02:38:29;;;;;;;24.30;5.30;;;;;;;-145.18;100.00;46676.03;5027548;28;20337;-73
2022/05/13 02:41:13;;;;;;;27.17;5.33;;;;;;;-145.18;100.00;46676.03;5025782;28;20997;-73
2022/05/13 02:43:46;;;;;;;21.30;5.40;;;;;;;-145.18;100.00;46679.94;5009475;28;20290;-73
2022/05/13 02:46:15;;;;;;;23.43;5.67;;;;;;;-145.18;100.00;46670.16;5018383;28;20289;-73
2022/05/13 02:48:40;;;;;;;23.20;5.93;;;;;;;-145.18;100.00;46676.03;5027940;28;20282;-73
2022/05/13 02:51:06;;;;;;;17.73;5.13;;;;;;;-145.18;100.00;46676.03;5028082;28;20348;-73
2022/05/13 02:53:32;;;;;;;22.60;5.40;;;;;;;-145.18;100.00;46674.06;5029445;28;20468;-73
2022/05/13 02:55:58;;;;;;;15.20;5.40;;;;;;;-145.18;100.00;46672.13;5028987;28;20274;-73
2022/05/13 02:58:23;;;;;;;22.40;5.70;;;;;;;-145.18;100.00;46664.31;5028903;28;20040;-73
2022/05/13 03:00:48;;;;;;;16.13;5.20;;;;;;;-145.18;100.00;46668.22;5029641;28;20546;-73
2022/05/13 03:03:14;;;;;;;20.27;6.27;;;;;;;-145.18;100.00;46668.22;5027704;28;20053;-73
2022/05/13 03:05:40;;;;;;;26.83;5.77;;;;;;;-145.18;100.00;46664.31;5029263;28;20069;-73
2022/05/13 03:08:07;;;;;;;26.57;5.73;;;;;;;-145.18;100.00;46660.41;5028005;28;20113;-73
2022/05/13 03:10:35;;;;;;;23.30;6.23;;;;;;;-145.18;100.00;46658.44;5029465;28;20037;-73
2022/05/13 03:13:01;;;;;;;21.47;6.33;;;;;;;-145.18;100.00;46660.41;5028378;28;20340;-72
2022/05/13 03:15:27;;;;;;;27.30;6.73;;;;;;;-145.18;100.00;46652.59;5029517;28;20298;-72
2022/05/13 03:17:53;;;;;;;22.27;6.43;;;;;;;-145.18;100.00;46658.44;5028756;28;20045;-73
2022/05/13 03:20:20;;;;;;;18.83;6.37;;;;;;;-145.18;100.00;46660.41;5028361;28;20328;-72
2022/05/13 03:22:46;;;;;;;28.53;7.37;;;;;;;-145.18;100.00;46658.44;5026946;28;20089;-72
2022/05/13 03:25:13;;;;;;;28.53;6.77;;;;;;;-145.18;100.00;46656.50;5028554;28;20290;-72
2022/05/13 03:27:38;;;;;;;21.90;7.33;;;;;;;-145.18;100.00;46654.53;5028791;28;20275;-72
2022/05/13 03:30:05;;;;;;;25.83;6.23;;;;;;;-145.18;100.00;46648.69;5028567;28;20343;-72
2022/05/13 03:32:31;;;;;;;28.30;6.63;;;;;;;-145.18;100.00;46654.53;5029022;28;20494;-72
2022/05/13 03:34:56;;;;;;;26.27;6.67;;;;;;;-145.18;100.00;46652.59;5028702;28;20309;-72
2022/05/13 03:37:21;;;;;;;23.67;7.07;;;;;;;-145.18;100.00;46650.63;5028040;28;20504;-72
2022/05/13 03:39:47;;;;;;;24.13;7.67;;;;;;;-145.18;100.00;46642.81;5028169;28;20045;-72
2022/05/13 03:42:12;;;;;;;28.43;7.37;;;;;;;-145.18;100.00;46648.69;5027273;28;20041;-72
2022/05/13 03:44:37;;;;;;;21.73;7.10;;;;;;;-145.18;100.00;46644.78;5028049;28;20087;-73
2022/05/13 03:47:04;;;;;;;25.23;8.10;;;;;;;-145.18;100.00;46644.78;5028793;28;20113;-73
2022/05/13 03:49:29;;;;;;;24.83;7.83;;;;;;;-145.18;100.00;46642.81;5028863;28;20394;-73
2022/05/13 03:51:55;;;;;;;34.80;9.27;;;;;;;-145.18;100.00;46642.81;5028671;28;20258;-73
2022/05/13 03:54:20;;;;;;;30.87;8.63;;;;;;;-145.18;100.00;46644.78;5029056;28;20045;-73
2022/05/13 03:56:45;;;;;;;24.87;8.53;;;;;;;-145.18;100.00;46646.72;5028295;28;20037;-73
2022/05/13 03:59:11;;;;;;;31.13;9.57;;;;;;;-145.18;100.00;46644.78;5031761;28;20378;-73
2022/05/13 04:01:36;;;;;;;34.00;9.27;;;;;;;-145.18;100.00;46642.81;5031004;28;20041;-73
2022/05/13 04:04:02;;;;;;;21.13;7.73;;;;;;;-145.18;100.00;46642.81;5014184;28;20068;-73
2022/05/13 04:09:11;;;;;;;29.17;8.40;;;;;;;-145.18;100.00;46644.78;5032093;28;20063;-73
2022/05/13 04:11:39;;;;;;;31.20;8.50;;;;;;;-145.18;100.00;46635.00;5031764;28;20287;-73
2022/05/13 04:16:51;;;;;;;;;;;;;;;-145.18;100.00;46640.88;5032949;28;20373;-73
2022/05/13 04:19:18;;;;;;;37.72;9.73;;;;;;;-145.18;100.00;46638.91;5029986;28;19952;-73
2022/05/13 04:21:44;;;;;;;29.30;8.47;;;;;;;-145.18;100.00;46642.81;5031453;28;20048;-73
2022/05/13 04:24:13;;;;;;;29.03;8.73;;;;;;;-145.18;100.00;46636.94;5031960;28;20681;-73
2022/05/13 04:26:39;;;;;;;24.77;7.57;;;;;;;-145.18;100.00;46642.81;5032360;28;20266;-73
2022/05/13 04:29:05;;;;;;;29.20;8.17;;;;;;;-145.18;100.00;46633.06;5030987;28;20302;-73
2022/05/13 04:31:38;;;;;;;20.83;8.10;;;;;;;-145.18;100.00;46640.88;5031038;28;20099;-73
2022/05/13 04:34:04;;;;;;;20.27;8.00;;;;;;;-145.18;100.00;46638.91;5031221;28;20282;-73
2022/05/13 04:36:30;;;;;;;23.77;8.30;;;;;;;-145.18;100.00;46638.91;5030798;28;20839;-73
2022/05/13 04:38:56;;;;;;;30.63;8.43;;;;;;;-145.18;100.00;46636.94;5030155;28;20286;-73
2022/05/13 04:44:09;;;;;;;27.27;8.23;;;;;;;-145.18;100.00;46636.94;5017645;28;20274;-74
2022/05/13 04:46:36;;;;;;;29.63;8.03;;;;;;;-145.18;100.00;46640.88;5011180;28;20034;-74
2022/05/13 04:49:02;;;;;;;25.37;8.57;;;;;;;-145.18;100.00;46638.91;5010694;28;20267;-74
2022/05/13 04:51:27;;;;;;;27.87;8.63;;;;;;;-145.18;100.00;46638.91;5020863;28;20274;-73
2022/05/13 04:53:54;;;;;;;30.37;8.17;;;;;;;-145.18;100.00;46633.06;5028682;28;20124;-73
2022/05/13 04:56:21;;;;;;;29.87;9.90;;;;;;;-145.18;100.00;46635.00;5030806;28;20555;-73
2022/05/13 04:58:47;;;;;;;25.27;8.67;;;;;;;-145.18;100.00;46636.94;5030875;28;20346;-73
2022/05/13 05:01:12;;;;;;;31.63;8.77;;;;;;;-145.18;100.00;46636.94;5031614;28;20349;-73
2022/05/13 05:03:40;;;;;;;31.07;9.73;;;;;;;-145.18;100.00;46636.94;5030722;28;20353;-74
2022/05/13 05:06:06;;;;;;;29.80;9.60;;;;;;;-145.18;100.00;46636.94;5031253;28;20033;-74
2022/05/13 05:08:32;;;;;;;27.93;9.03;;;;;;;-145.18;100.00;46631.09;5030472;28;20270;-73
2022/05/13 05:10:59;;;;;;;37.47;10.77;;;;;;;-145.18;100.00;46636.94;5031336;28;20267;-73
2022/05/13 05:13:28;;;;;;;36.63;9.73;;;;;;;-145.18;100.00;46636.94;5031175;28;20109;-73
2022/05/13 05:15:54;;;;;;;28.47;10.33;;;;;;;-145.18;100.00;46635.00;5028048;28;20305;-73
2022/05/13 05:18:20;;;;;;;37.50;9.47;;;;;;;-145.18;100.00;46633.06;5010125;28;20281;-73
2022/05/13 05:20:46;;;;;;;29.90;9.20;;;;;;;-145.18;100.00;46636.94;5026336;28;20650;-74
2022/05/13 05:23:17;;;;;;;26.67;9.83;;;;;;;-145.18;100.00;46629.13;5027826;28;20034;-73
2022/05/13 05:25:43;;;;;;;32.57;10.03;;;;;;;-145.18;100.00;46635.00;5028713;28;20297;-73
2022/05/13 05:28:09;;;;;;;35.17;11.40;;;;;;;-145.18;100.00;46640.88;5029690;28;20293;-74
2022/05/13 05:30:35;;;;;;;36.07;10.57;;;;;;;-145.18;100.00;46635.00;5030274;28;20705;-73
2022/05/13 05:33:00;;;;;;;27.23;10.83;;;;;;;-145.18;100.00;46636.94;5029854;28;20030;-74
2022/05/13 05:35:26;;;;;;;32.93;11.57;;;;;;;-145.18;100.00;46636.94;5030753;28;20041;-73
2022/05/13 05:37:52;;;;;;;29.97;11.30;;;;;;;-145.18;100.00;46644.78;5030266;28;20033;-74
2022/05/13 05:40:17;;;;;;;28.13;10.20;;;;;;;-145.18;100.00;46640.88;5030771;28;20033;-74
2022/05/13 05:42:43;;;;;;;43.20;12.60;;;;;;;-145.18;100.00;46638.91;5030772;28;20025;-74
2022/05/13 05:45:11;;;;;;;38.73;11.50;;;;;;;-145.18;100.00;46644.78;5030543;28;20033;-74
2022/05/13 05:47:37;;;;;;;24.03;11.10;;;;;;;-145.18;100.00;46642.81;5030732;28;20155;-74
2022/05/13 05:50:05;;;;;;;27.43;11.30;;;;;;;-145.18;100.00;46642.81;5030600;28;20353;-73
2022/05/13 05:52:31;;;;;;;29.53;11.73;;;;;;;-145.18;100.00;46644.78;5030255;28;20021;-74
2022/05/13 05:57:40;;;;;;;27.90;12.43;;;;;;;-145.18;100.00;46642.81;5029549;28;20053;-74
2022/05/13 06:00:07;;;;;;;29.70;12.90;;;;;;;-145.18;100.00;46644.78;5027089;28;20279;-74
2022/05/13 06:02:33;;;;;;;30.27;12.63;;;;;;;-145.18;100.00;46644.78;5029824;28;20529;-74
2022/05/13 06:04:58;;;;;;;31.53;12.10;;;;;;;-145.18;100.00;46646.72;5029004;28;20286;-74
2022/05/13 06:07:26;;;;;;;29.60;12.10;;;;;;;-145.18;100.00;46650.63;5029919;28;20094;-74
2022/05/13 06:09:52;;;;;;;29.67;12.77;;;;;;;-145.18;100.00;46648.69;5011192;28;20040;-74
2022/05/13 06:12:18;;;;;;;30.07;12.10;;;;;;;-145.18;100.00;46648.69;5010431;28;20271;-74
2022/05/13 06:14:43;;;;;;;32.73;10.30;;;;;;;-145.18;100.00;46652.59;5009360;28;20038;-74
2022/05/13 06:17:09;;;;;;;24.50;10.43;;;;;;;-145.18;100.00;46650.63;5010306;28;20045;-74
2022/05/13 06:19:35;;;;;;;33.07;10.70;;;;;;;-145.18;100.00;46648.69;5016169;28;20025;-74
2022/05/13 06:22:00;;;;;;;25.60;10.10;;;;;;;-145.18;100.00;46650.63;5028242;28;20095;-74
2022/05/13 06:24:25;;;;;;;22.80;8.80;;;;;;;-145.18;100.00;46650.63;5028586;28;20470;-74
2022/05/13 06:26:51;;;;;;;26.07;8.50;;;;;;;-145.18;100.00;46640.88;5030117;28;20067;-74
2022/05/13 06:29:22;;;;;;;26.83;8.57;;;;;;;-145.18;100.00;46638.91;5028373;28;20056;-74
2022/05/13 06:31:48;;;;;;;30.47;6.33;;;;;;;-145.18;100.00;46635.00;5030183;28;20025;-74
2022/05/13 06:34:14;;;;;;;30.87;8.20;;;;;;;-145.18;100.00;46633.06;5026629;28;20041;-74
2022/05/13 06:36:41;;;;;;;18.80;5.17;;;;;;;-145.18;100.00;46613.50;5030117;28;20057;-74
2022/05/13 06:39:07;;;;;;;22.97;4.80;;;;;;;-145.18;100.00;46574.44;5028413;28;20076;-74
2022/05/13 06:41:37;;;;;;;26.10;5.63;;;;;;;-145.18;100.00;46592.03;5029822;28;20025;-74
2022/05/13 06:44:07;;;;;;;18.20;4.07;;;;;;;-145.18;100.00;46547.09;5028771;28;20482;-74
2022/05/13 06:46:33;;;;;;;17.63;5.10;;;;;;;-145.18;100.00;46535.38;5017766;28;20565;-74
2022/05/13 06:48:59;;;;;;;17.87;4.03;;;;;;;-145.18;100.00;46523.66;5011427;28;20121;-74
2022/05/13 06:51:25;;;;;;;15.67;3.73;;;;;;;-145.18;100.00;46521.72;5009589;28;20113;-74
2022/05/13 06:53:50;;;;;;;20.13;3.93;;;;;;;-145.18;100.00;46523.66;5009606;28;20122;-74
2022/05/13 06:56:16;;;;;;;18.23;3.23;;;;;;;-145.18;100.00;46517.81;5009742;28;20037;-74
2022/05/13 06:58:41;;;;;;;12.10;4.13;;;;;;;-145.18;100.00;46523.66;5009678;28;20117;-74
2022/05/13 07:01:06;;;;;;;17.63;3.50;;;;;;;-145.18;100.00;46521.72;5009708;28;20030;-74
2022/05/13 07:03:33;;;;;;;11.43;2.23;;;;;;;-145.18;100.00;46531.47;5009506;28;20103;-73
2022/05/13 07:05:58;;;;;;;16.00;3.10;;;;;;;-145.18;100.00;46531.47;5009922;28;20088;-73
2022/05/13 07:08:23;;;;;;;7.90;1.90;;;;;;;-145.18;100.00;46535.38;5009303;28;20030;-73
2022/05/13 07:10:49;;;;;;;13.60;2.20;;;;;;;-145.18;100.00;46541.25;5016443;28;20047;-73
2022/05/13 07:13:15;;;;;;;11.47;2.40;;;;;;;-145.18;100.00;46543.19;5029021;28;20065;-73
2022/05/13 07:15:42;;;;;;;6.47;1.33;;;;;;;-145.18;100.00;46556.88;5028708;28;20502;-73
2022/05/13 07:18:08;;;;;;;11.40;1.57;;;;;;;-145.18;100.00;46558.81;5028260;28;20030;-73
2022/05/13 07:20:33;;;;;;;12.10;1.87;;;;;;;-145.18;100.00;46549.06;5028443;28;20053;-73
2022/05/13 07:22:59;;;;;;;7.20;1.47;;;;;;;-145.18;100.00;46545.16;5028568;28;20036;-73
2022/05/13 07:25:24;;;;;;;14.53;2.50;;;;;;;-145.18;100.00;46543.19;5028948;28;20037;-73
2022/05/13 07:27:50;;;;;;;12.30;1.73;;;;;;;-145.18;100.00;46551.00;5029136;28;20041;-73
2022/05/13 07:30:15;;;;;;;8.43;1.90;;;;;;;-145.18;100.00;46539.28;5029135;28;20030;-73
2022/05/13 07:32:41;;;;;;;5.67;1.77;;;;;;;-145.18;100.00;46551.00;5030445;28;20044;-73
2022/05/13 07:35:08;;;;;;;7.53;1.50;;;;;;;-145.18;100.00;46558.81;5032497;28;20037;-74
2022/05/13 07:37:34;;;;;;;12.63;1.67;;;;;;;-145.18;100.00;46554.91;5033353;28;20065;-73
2022/05/13 07:42:44;;;;;;;6.87;1.37;;;;;;;-145.18;100.00;46560.78;5033396;28;20040;-74
2022/05/13 07:45:10;;;;;;;5.93;1.20;;;;;;;-145.18;100.00;46566.63;5032749;28;20033;-73
2022/05/13 07:47:38;;;;;;;8.23;1.00;;;;;;;-145.18;100.00;46568.59;5032849;28;20056;-73
2022/05/13 07:50:03;;;;;;;5.27;1.10;;;;;;;-145.18;100.00;46560.78;5032248;28;20022;-73
2022/05/13 07:52:29;;;;;;;9.20;1.50;;;;;;;-145.18;100.00;46560.78;5033137;28;20116;-74
2022/05/13 07:54:54;;;;;;;10.33;1.20;;;;;;;-145.18;100.00;46566.63;5032351;28;20045;-74
2022/05/13 07:57:20;;;;;;;7.87;1.73;;;;;;;-145.18;100.00;46582.25;5032841;28;20133;-74
2022/05/13 08:02:29;;;;;;;10.20;1.50;;;;;;;-145.18;100.00;46574.44;5032859;28;20079;-73
2022/05/13 08:04:55;;;;;;;8.80;1.57;;;;;;;-145.18;100.00;46578.34;5032222;28;20454;-73
2022/05/13 08:07:20;;;;;;;10.67;1.43;;;;;;;-145.18;100.00;46586.16;5032587;28;20490;-73
2022/05/13 08:09:45;;;;;;;5.20;1.20;;;;;;;-145.18;100.00;46595.94;5032058;28;20483;-73
2022/05/13 08:12:11;;;;;;;9.63;1.80;;;;;;;-145.18;100.00;46605.69;5032469;28;20077;-74
2022/05/13 08:14:36;;;;;;;8.77;1.47;;;;;;;-145.18;100.00;46593.97;5032216;28;20048;-73
2022/05/13 08:17:02;;;;;;;6.53;1.93;;;;;;;-145.18;100.00;46586.16;5032307;28;20112;-74
2022/05/13 08:19:27;;;;;;;6.17;1.70;;;;;;;-145.18;100.00;46593.97;5032290;28;20037;-73
2022/05/13 08:21:53;;;;;;;13.40;1.90;;;;;;;-145.18;100.00;46629.13;5032101;28;20474;-74
2022/05/13 08:24:18;;;;;;;10.03;1.80;;;;;;;-145.18;100.00;46609.59;5030316;28;20095;-74
2022/05/13 08:26:43;;;;;;;6.07;1.20;;;;;;;-145.18;100.00;46582.25;5032370;28;20033;-74
2022/05/13 08:29:09;;;;;;;8.27;1.70;;;;;;;-145.18;100.00;46549.06;5031583;28;20041;-74
2022/05/13 08:31:35;;;;;;;13.83;2.10;;;;;;;-145.18;100.00;46572.50;5032239;28;20040;-74
2022/05/13 08:34:00;;;;;;;8.90;1.57;;;;;;;-145.18;100.00;46597.88;5031123;28;20112;-74
2022/05/13 08:36:25;;;;;;;9.00;1.60;;;;;;;-145.18;100.00;46570.53;5031974;28;20069;-74
2022/05/13 08:38:51;;;;;;;6.07;1.13;;;;;;;-145.18;100.00;46586.16;5031642;28;20064;-74
2022/05/13 08:41:37;;;;;;;16.70;1.70;;;;;;;-145.18;100.00;46642.81;5031848;28;20041;-74
2022/05/13 08:44:07;;;;;;;9.10;1.63;;;;;;;-145.18;100.00;46832.28;5030721;28;20401;-74
2022/05/13 08:46:39;;;;;;;10.10;2.20;;;;;;;-145.18;100.00;46580.31;5031793;28;20087;-74
2022/05/13 08:49:26;;;;;;;9.20;1.50;;;;;;;-145.18;100.00;46621.31;5031222;28;20027;-74
2022/05/13 08:52:04;;;;;;;10.37;1.20;;;;;;;-145.18;100.00;47195.66;5031952;28;20157;-74
2022/05/13 08:54:34;;;;;;;12.77;2.10;;;;;;;-145.18;100.00;47015.91;5031216;28;20489;-74
2022/05/13 08:57:08;;;;;;;7.57;2.00;;;;;;;-145.18;100.00;46969.03;5031684;28;20466;-74
2022/05/13 08:59:52;;;;;;;8.37;1.67;;;;;;;-145.18;100.00;47213.22;5031338;28;20047;-74
2022/05/13 09:02:24;;;;;;;10.47;1.33;;;;;;;-145.18;100.00;47140.94;5031243;28;20025;-74
2022/05/13 09:05:01;;;;;;;6.80;1.53;;;;;;;-145.18;100.00;47127.28;5031279;28;20394;-74
2022/05/13 09:07:27;;;;;;;9.43;2.03;;;;;;;-145.18;100.00;47244.50;5031431;28;20033;-74
2022/05/13 09:09:58;;;;;;;8.93;1.53;;;;;;;-145.18;100.00;47307.00;5030714;28;20053;-74
2022/05/13 09:12:29;;;;;;;9.33;2.30;;;;;;;-145.18;100.00;46949.50;5031421;28;20045;-74
2022/05/13 09:14:59;;;;;;;4.30;1.40;;;;;;;-145.18;100.00;46672.13;5029473;28;20064;-74
2022/05/13 09:17:42;;;;;;;9.17;1.83;;;;;;;-145.18;100.00;46701.41;5031437;28;20048;-74
2022/05/13 09:20:21;;;;;;;8.40;1.40;;;;;;;-145.18;100.00;47029.59;5029299;28;20056;-74
2022/05/13 09:22:52;;;;;;;8.93;1.40;;;;;;;-145.18;100.00;46777.59;5031027;28;20533;-74
2022/05/13 09:25:24;;;;;;;10.27;2.30;;;;;;;-145.18;100.00;46916.28;5030740;28;20065;-74
2022/05/13 09:27:56;;;;;;;8.60;1.50;;;;;;;-145.18;100.00;47238.63;5031004;28;20029;-74
2022/05/13 09:30:25;;;;;;;11.37;2.03;;;;;;;-145.18;100.00;47172.19;5015680;28;20481;-74
2022/05/13 09:32:50;;;;;;;9.53;1.87;;;;;;;-145.18;100.00;47156.56;5011216;28;20057;-74
2022/05/13 09:35:29;;;;;;;6.63;1.33;;;;;;;-145.18;100.00;47154.63;5010974;28;20461;-74
2022/05/13 09:37:55;;;;;;;7.40;1.20;;;;;;;-145.18;100.00;47176.09;5010885;28;20049;-74
2022/05/13 09:40:25;;;;;;;7.37;2.30;;;;;;;-145.18;100.00;47193.69;5010946;28;20030;-74
2022/05/13 09:42:54;;;;;;;7.57;1.60;;;;;;;-145.18;100.00;47193.69;5027367;28;20056;-74
2022/05/13 09:45:25;;;;;;;6.13;1.10;;;;;;;-145.18;100.00;47228.84;5030278;28;20033;-74
2022/05/13 09:48:05;;;;;;;6.70;1.77;;;;;;;-145.18;100.00;47230.81;5030592;28;20028;-74
2022/05/13 09:50:34;;;;;;;10.23;1.57;;;;;;;-145.18;100.00;47135.09;5030729;28;20052;-74
2022/05/13 09:53:06;;;;;;;5.20;1.30;;;;;;;-145.18;100.00;47150.72;5030221;28;20026;-74
2022/05/13 09:55:37;;;;;;;8.90;1.20;;;;;;;-145.18;100.00;47121.41;5029819;28;20045;-74
2022/05/13 09:58:09;;;;;;;9.70;1.33;;;;;;;-145.18;100.00;47150.72;5030017;28;20481;-74
2022/05/13 10:00:40;;;;;;;5.83;1.50;;;;;;;-145.18;100.00;47137.03;5029281;28;20329;-74
2022/05/13 10:03:31;;;;;;;4.90;1.50;;;;;;;-145.18;100.00;47142.91;5029398;28;20052;-74
2022/05/13 10:06:08;;;;;;;8.80;1.57;;;;;;;-145.18;100.00;47183.94;5030341;28;20501;-73
2022/05/13 10:08:37;;;;;;;7.43;1.60;;;;;;;-145.18;100.00;47213.22;5030106;28;20040;-73
2022/05/13 10:13:59;;;;;;;10.40;1.83;;;;;;;-145.18;100.00;47146.81;5029916;28;20033;-73
2022/05/13 10:16:36;;;;;;;11.10;1.93;;;;;;;-145.18;100.00;47123.38;5030158;28;20034;-73
2022/05/13 10:19:06;;;;;;;8.10;1.43;;;;;;;-145.18;100.00;47139.00;5029648;28;20033;-74
2022/05/13 10:21:49;;;;;;;8.97;1.30;;;;;;;-145.18;100.00;47117.50;5030426;28;20079;-73
2022/05/13 10:24:23;;;;;;;6.27;1.23;;;;;;;-145.18;100.00;47088.19;5029778;28;20135;-73
2022/05/13 10:26:50;;;;;;;9.50;1.33;;;;;;;-145.18;100.00;47133.13;5029819;28;20029;-72
2022/05/13 10:29:18;;;;;;;4.47;1.30;;;;;;;-145.18;100.00;47092.09;5030564;28;20029;-73
2022/05/13 10:31:46;;;;;;;9.00;1.23;;;;;;;-145.18;100.00;47113.59;5030121;28;20490;-74
2022/05/13 10:34:35;;;;;;;8.93;1.73;;;;;;;-145.18;100.00;47103.81;5029434;28;20532;-74
2022/05/13 10:37:14;;;;;;;8.40;1.97;;;;;;;-145.18;100.00;47096.00;5029773;28;20087;-73
2022/05/13 10:39:43;;;;;;;3.70;1.30;;;;;;;-145.18;100.00;47086.25;5029619;28;20107;-74
2022/05/13 10:42:21;;;;;;;9.27;1.00;;;;;;;-145.18;100.00;47084.28;5029834;28;20029;-73
2022/05/13 10:44:54;;;;;;;5.63;1.13;;;;;;;-145.18;100.00;47090.16;5029419;28;20029;-74
2022/05/13 10:47:33;;;;;;;8.07;1.10;;;;;;;-145.18;100.00;47086.25;5028333;28;20025;-74
2022/05/13 10:49:59;;;;;;;6.70;1.40;;;;;;;-145.18;100.00;47094.06;5029225;28;20025;-74
2022/05/13 10:52:55;;;;;;;3.47;0.80;;;;;;;-145.18;100.00;47103.81;5029065;28;20509;-74
2022/05/13 10:55:29;;;;;;;5.70;1.25;;;;;;;-145.18;100.00;47127.28;5028038;28;20047;-74
2022/05/13 10:58:13;;;;;;;8.77;1.40;;;;;;;-145.18;100.00;47074.53;5029435;28;20032;-74
2022/05/13 11:00:53;;;;;;;8.77;1.40;;;;;;;-145.18;100.00;47078.44;5029510;28;20033;-74
2022/05/13 11:03:34;;;;;;;3.73;1.23;;;;;;;-145.18;100.00;47062.81;5029147;28;20053;-74
2022/05/13 11:06:21;;;;;;;8.20;1.30;;;;;;;-145.18;100.00;47086.25;5027990;28;20029;-74
2022/05/13 11:09:00;;;;;;;11.00;2.33;;;;;;;-145.18;100.00;47066.72;5033275;28;20556;-74
2022/05/13 11:11:35;;;;;;;7.00;1.20;;;;;;;-145.18;100.00;47058.91;5033778;28;20057;-74
2022/05/13 11:14:12;;;;;;;7.93;1.07;;;;;;;-145.18;100.00;47074.53;5032877;28;20436;-73
2022/05/13 11:17:01;;;;;;;8.53;1.37;;;;;;;-145.18;100.00;47074.53;5033507;28;20040;-74
2022/05/13 11:19:44;;;;;;;2.63;0.77;;;;;;;-145.18;100.00;47078.44;5033179;28;20041;-74
2022/05/13 11:22:25;;;;;;;4.73;1.47;;;;;;;-145.18;100.00;47074.53;5033116;28;20537;-74
2022/05/13 11:28:14;;;;;;;5.53;1.20;;;;;;;-145.18;100.00;47049.13;5033188;28;20455;-74
2022/05/13 11:30:51;;;;;;;6.20;1.20;;;;;;;-145.18;100.00;47047.19;5032959;28;20477;-74
2022/05/13 11:33:39;;;;;;;4.03;1.40;;;;;;;-145.18;100.00;47039.34;5033373;28;20033;-74
2022/05/13 11:36:23;;;;;;;7.87;1.20;;;;;;;-145.18;100.00;47055.00;5032437;28;20041;-74